Time;durP1;ratioP1;P1;durP2;ratioP2;P2;SDS_P1;SDS_P2;PMS_P1;PMS_P2;Temp;Humidity;BMP_temperature;BMP_pressure;BME280_temperature;BME280_humidity;BME280_pressure;Samples;Min_cycle;Max_cycle;Signal;HPM_P1;HPM_P2
2022/08/01 00:00:39;;;;;;;14.02;9.38;;;21.00;91.10;;;;;;5062746;28;20021;-73
2022/08/01 00:03:05;;;;;;;13.68;9.40;;;21.00;91.30;;;;;;5052620;28;20483;-74
2022/08/01 00:05:31;;;;;;;14.90;10.18;;;21.00;91.50;;;;;;5047954;28;20143;-73
2022/08/01 00:07:56;;;;;;;16.33;11.85;;;20.90;91.50;;;;;;5048768;28;20501;-73
2022/08/01 00:10:22;;;;;;;18.38;11.23;;;20.90;91.60;;;;;;5049312;28;20037;-74
2022/08/01 00:12:48;;;;;;;13.23;10.00;;;20.90;91.70;;;;;;5059247;28;20039;-74
2022/08/01 00:15:15;;;;;;;16.48;11.55;;;20.90;91.70;;;;;;5053292;28;20102;-74
2022/08/01 00:17:42;;;;;;;14.80;10.13;;;21.00;91.60;;;;;;5049896;28;20029;-74
2022/08/01 00:20:13;;;;;;;15.77;11.25;;;21.00;91.50;;;;;;5064165;28;20020;-74
2022/08/01 00:22:39;;;;;;;16.63;11.82;;;21.00;91.60;;;;;;5069024;28;20024;-74
2022/08/01 00:25:05;;;;;;;14.90;10.52;;;21.00;91.60;;;;;;5065346;28;20059;-72
2022/08/01 00:27:31;;;;;;;16.23;12.00;;;21.10;91.50;;;;;;5056845;28;20035;-74
2022/08/01 00:29:57;;;;;;;14.65;9.65;;;21.10;91.60;;;;;;5067248;28;20035;-74
2022/08/01 00:32:23;;;;;;;20.55;12.77;;;21.00;91.50;;;;;;5056257;28;20498;-74
2022/08/01 00:34:48;;;;;;;17.48;11.98;;;21.00;91.40;;;;;;5054125;28;20047;-74
2022/08/01 00:37:14;;;;;;;18.48;13.10;;;21.00;91.50;;;;;;5063085;28;20025;-74
2022/08/01 00:39:40;;;;;;;17.15;13.15;;;21.00;91.50;;;;;;5067026;28;20502;-74
2022/08/01 00:42:07;;;;;;;17.33;13.20;;;21.00;91.50;;;;;;5057217;28;20044;-72
2022/08/01 00:44:34;;;;;;;13.82;9.70;;;21.00;91.50;;;;;;5072067;28;20033;-74
2022/08/01 00:46:59;;;;;;;16.38;13.93;;;21.00;91.40;;;;;;5069883;28;20028;-73
2022/08/01 00:49:25;;;;;;;20.17;14.57;;;21.00;91.40;;;;;;5071173;28;20039;-74
2022/08/01 00:51:51;;;;;;;18.10;14.73;;;21.00;91.30;;;;;;5067663;28;20041;-74
2022/08/01 00:54:17;;;;;;;20.88;15.60;;;21.00;91.20;;;;;;5050464;28;20032;-73
2022/08/01 00:56:43;;;;;;;21.23;15.68;;;21.00;91.30;;;;;;5051921;28;20029;-74
2022/08/01 00:59:10;;;;;;;19.10;14.98;;;21.00;91.20;;;;;;5063580;28;20051;-73
2022/08/01 01:01:36;;;;;;;21.13;14.82;;;21.00;91.00;;;;;;5068464;28;20039;-74
2022/08/01 01:04:02;;;;;;;16.52;13.15;;;21.00;91.00;;;;;;5055154;28;20548;-74
2022/08/01 01:06:44;;;;;;;22.05;16.40;;;20.90;91.00;;;;;;5072178;28;20082;-73
2022/08/01 01:09:32;;;;;;;17.48;13.68;;;20.90;91.10;;;;;;5071710;28;20020;-73
2022/08/01 01:12:19;;;;;;;22.88;15.48;;;20.90;91.20;;;;;;5069021;28;20044;-74
2022/08/01 01:14:53;;;;;;;17.00;12.70;;;20.80;91.30;;;;;;5062765;28;20040;-74
2022/08/01 01:17:26;;;;;;;22.23;15.43;;;20.90;91.10;;;;;;5068497;28;20078;-74
2022/08/01 01:19:55;;;;;;;17.88;12.82;;;20.80;91.30;;;;;;5055743;28;20023;-74
2022/08/01 01:22:42;;;;;;;16.30;12.93;;;20.80;91.30;;;;;;5055901;28;20051;-73
2022/08/01 01:25:35;;;;;;;17.60;12.65;;;20.80;91.40;;;;;;5051872;28;20373;-74
2022/08/01 01:28:30;;;;;;;16.10;12.25;;;20.80;91.40;;;;;;5055425;28;20483;-72
2022/08/01 01:30:58;;;;;;;18.80;12.35;;;20.80;91.70;;;;;;5069164;28;20051;-73
2022/08/01 01:33:28;;;;;;;15.27;11.20;;;20.80;91.70;;;;;;5068978;28;20073;-74
2022/08/01 01:36:00;;;;;;;16.90;13.02;;;20.80;91.40;;;;;;5069650;28;20017;-73
2022/08/01 01:38:34;;;;;;;19.65;14.13;;;20.80;91.40;;;;;;5049831;28;20511;-73
2022/08/01 01:41:02;;;;;;;16.98;11.60;;;20.70;91.50;;;;;;5069097;28;20029;-73
2022/08/01 01:43:29;;;;;;;16.17;10.55;;;20.70;91.50;;;;;;5068584;28;20021;-74
2022/08/01 01:45:56;;;;;;;14.70;10.43;;;20.70;91.80;;;;;;5068416;28;20462;-74
2022/08/01 01:48:23;;;;;;;16.27;10.32;;;20.70;91.30;;;;;;5049456;28;20150;-74
2022/08/01 01:50:51;;;;;;;13.43;8.85;;;20.70;91.50;;;;;;5050438;28;20391;-73
2022/08/01 01:53:21;;;;;;;13.75;9.65;;;20.70;91.40;;;;;;5063659;28;20039;-73
2022/08/01 01:55:48;;;;;;;;;;;20.70;91.50;;;;;;5069753;28;20112;-73
2022/08/01 01:58:14;;;;;;;18.98;11.05;;;20.80;91.50;;;;;;5054287;28;20382;-74
2022/08/01 02:00:43;;;;;;;16.00;10.43;;;20.80;91.40;;;;;;5051281;28;20028;-74
2022/08/01 02:03:11;;;;;;;17.70;10.77;;;20.80;91.30;;;;;;5050446;28;20509;-74
2022/08/01 02:05:39;;;;;;;16.55;10.52;;;20.70;91.60;;;;;;5058654;28;20021;-74
2022/08/01 02:08:09;;;;;;;18.13;9.85;;;20.70;91.60;;;;;;5063702;28;20494;-74
2022/08/01 02:10:37;;;;;;;13.95;10.20;;;20.70;91.60;;;;;;5070529;28;20054;-73
2022/08/01 02:13:04;;;;;;;17.67;11.15;;;20.80;91.60;;;;;;5069659;28;20032;-73
2022/08/01 02:15:31;;;;;;;15.25;9.27;;;20.80;91.70;;;;;;5069455;28;20115;-72
2022/08/01 02:17:58;;;;;;;17.33;10.38;;;20.80;91.70;;;;;;5066762;28;20032;-73
2022/08/01 02:20:26;;;;;;;15.43;10.38;;;20.70;91.70;;;;;;5070021;28;20062;-73
2022/08/01 02:23:00;;;;;;;15.13;9.98;;;20.70;91.70;;;;;;5066618;28;20617;-74
2022/08/01 02:25:34;;;;;;;17.52;10.70;;;20.70;91.70;;;;;;5050119;28;20044;-75
2022/08/01 02:28:06;;;;;;;13.98;8.25;;;20.80;91.70;;;;;;5054786;28;20048;-74
2022/08/01 02:30:35;;;;;;;15.27;9.15;;;20.80;91.60;;;;;;5057740;28;20040;-74
2022/08/01 02:33:27;;;;;;;15.93;9.98;;;20.80;91.60;;;;;;5050042;28;20079;-75
2022/08/01 02:35:57;;;;;;;18.70;10.65;;;20.90;91.60;;;;;;5059621;28;20048;-73
2022/08/01 02:38:26;;;;;;;15.80;9.57;;;20.90;91.80;;;;;;5060791;28;20436;-73
2022/08/01 02:40:53;;;;;;;17.83;10.47;;;20.90;91.80;;;;;;5069574;28;20509;-73
2022/08/01 02:43:24;;;;;;;15.95;9.05;;;20.90;91.90;;;;;;5060730;28;20037;-74
2022/08/01 02:45:54;;;;;;;14.38;8.57;;;20.90;91.90;;;;;;5056664;28;20475;-74
2022/08/01 02:48:23;;;;;;;15.97;8.60;;;20.80;91.90;;;;;;5050420;28;20100;-75
2022/08/01 02:50:52;;;;;;;21.00;9.90;;;20.80;92.00;;;;;;5050466;28;20090;-72
2022/08/01 02:53:21;;;;;;;18.35;8.55;;;20.80;92.00;;;;;;5058767;28;20286;-73
2022/08/01 02:55:47;;;;;;;16.67;9.98;;;20.80;91.90;;;;;;5070022;28;20507;-74
2022/08/01 02:58:16;;;;;;;18.52;11.23;;;20.80;91.70;;;;;;5061862;28;20024;-74
2022/08/01 03:00:44;;;;;;;16.50;9.13;;;20.80;92.10;;;;;;5060168;28;20048;-74
2022/08/01 03:03:10;;;;;;;18.38;10.23;;;20.80;92.10;;;;;;5063573;28;20418;-74
2022/08/01 03:05:39;;;;;;;18.58;10.75;;;20.70;92.00;;;;;;5068636;28;20115;-74
2022/08/01 03:08:07;;;;;;;19.92;11.05;;;20.70;92.30;;;;;;5067843;28;20024;-73
2022/08/01 03:10:35;;;;;;;16.35;9.00;;;20.70;92.50;;;;;;5069976;28;20462;-74
2022/08/01 03:13:04;;;;;;;16.00;9.98;;;20.70;92.60;;;;;;5066724;28;20040;-73
2022/08/01 03:15:33;;;;;;;16.25;9.38;;;20.60;92.80;;;;;;5067931;28;20437;-73
2022/08/01 03:18:00;;;;;;;13.40;7.85;;;20.60;92.60;;;;;;5059964;28;20441;-73
2022/08/01 03:20:28;;;;;;;13.02;7.10;;;20.60;92.60;;;;;;5069602;28;20550;-74
2022/08/01 03:22:56;;;;;;;14.48;8.60;;;20.50;92.90;;;;;;5067241;28;20116;-73
2022/08/01 03:25:23;;;;;;;14.38;8.75;;;20.60;92.90;;;;;;5069177;28;20131;-73
2022/08/01 03:27:55;;;;;;;11.23;6.45;;;20.60;92.90;;;;;;5058377;28;20029;-74
2022/08/01 03:30:23;;;;;;;13.80;8.60;;;20.60;92.80;;;;;;5064855;28;20048;-73
2022/08/01 03:32:48;;;;;;;10.32;6.10;;;20.60;92.70;;;;;;5067424;28;20442;-73
2022/08/01 03:35:14;;;;;;;12.63;8.50;;;20.60;92.30;;;;;;5049696;28;20108;-73
2022/08/01 03:37:47;;;;;;;13.35;8.25;;;20.60;92.50;;;;;;5057057;28;20028;-74
2022/08/01 03:40:33;;;;;;;11.05;7.30;;;20.60;92.70;;;;;;5058539;28;20092;-74
2022/08/01 03:43:03;;;;;;;10.43;6.63;;;20.60;92.70;;;;;;5056478;28;20128;-74
2022/08/01 03:45:35;;;;;;;;;;;20.60;92.60;;;;;;5059096;28;20493;-73
2022/08/01 03:48:05;;;;;;;13.40;6.90;;;20.60;92.60;;;;;;5055832;28;19943;-74
2022/08/01 03:50:36;;;;;;;10.00;6.72;;;20.60;92.60;;;;;;5058143;28;20742;-73
2022/08/01 03:53:06;;;;;;;9.23;6.25;;;20.50;92.60;;;;;;5055230;28;20615;-73
2022/08/01 03:55:34;;;;;;;10.07;6.63;;;20.50;92.70;;;;;;5057525;28;20172;-73
2022/08/01 03:58:01;;;;;;;11.40;7.07;;;20.50;92.80;;;;;;5055155;28;20028;-74
2022/08/01 04:00:27;;;;;;;8.20;5.72;;;20.40;92.90;;;;;;5056519;28;20051;-74
2022/08/01 04:02:53;;;;;;;11.38;6.45;;;20.40;92.90;;;;;;5058305;28;20028;-73
2022/08/01 04:05:19;;;;;;;10.18;6.22;;;20.40;93.00;;;;;;5060615;28;20025;-73
2022/08/01 04:07:59;;;;;;;9.18;5.28;;;20.40;93.00;;;;;;5062434;28;20540;-74
2022/08/01 04:10:25;;;;;;;11.98;8.20;;;20.40;93.00;;;;;;5058968;28;20032;-74
2022/08/01 04:12:51;;;;;;;13.60;8.65;;;20.50;93.00;;;;;;5058676;28;20135;-73
2022/08/01 04:15:18;;;;;;;12.68;8.02;;;20.50;92.90;;;;;;5062458;28;20025;-73
2022/08/01 04:17:43;;;;;;;12.70;8.30;;;20.50;92.90;;;;;;5059995;28;20108;-74
2022/08/01 04:20:11;;;;;;;12.50;8.95;;;20.50;92.80;;;;;;5060273;28;20669;-75
2022/08/01 04:22:37;;;;;;;13.23;8.25;;;20.40;92.80;;;;;;5059601;28;20549;-75
2022/08/01 04:25:24;;;;;;;14.60;9.00;;;20.40;92.80;;;;;;5061213;28;20087;-74
2022/08/01 04:27:52;;;;;;;15.27;9.73;;;20.40;92.90;;;;;;5059134;28;20050;-75
2022/08/01 04:30:24;;;;;;;15.15;11.02;;;20.40;92.80;;;;;;5060180;28;20021;-75
2022/08/01 04:32:52;;;;;;;15.10;10.55;;;20.40;92.90;;;;;;5057991;28;20086;-75
2022/08/01 04:35:19;;;;;;;14.55;9.57;;;20.40;92.90;;;;;;5051968;28;20082;-75
2022/08/01 04:37:48;;;;;;;17.05;13.23;;;20.40;92.80;;;;;;5060026;28;20021;-75
2022/08/01 04:40:14;;;;;;;15.35;11.32;;;20.40;93.10;;;;;;5049896;28;20025;-75
2022/08/01 04:42:40;;;;;;;15.95;12.70;;;20.40;93.20;;;;;;5055173;28;20051;-74
2022/08/01 04:45:08;;;;;;;13.95;10.35;;;20.40;93.20;;;;;;5071655;28;20016;-75
2022/08/01 04:47:36;;;;;;;15.30;11.45;;;20.40;93.20;;;;;;5065905;28;20100;-73
2022/08/01 04:50:07;;;;;;;18.73;11.95;;;20.40;93.40;;;;;;5052534;28;20043;-74
2022/08/01 04:52:37;;;;;;;17.10;12.93;;;20.40;93.50;;;;;;5051990;28;20037;-74
2022/08/01 04:55:05;;;;;;;18.65;13.48;;;20.40;93.50;;;;;;5060309;28;20024;-73
2022/08/01 04:57:34;;;;;;;19.85;13.60;;;20.40;93.50;;;;;;5069182;28;20612;-73
2022/08/01 05:00:02;;;;;;;14.85;10.10;;;20.40;93.60;;;;;;5071129;28;20051;-74
2022/08/01 05:02:28;;;;;;;16.65;13.70;;;20.40;93.50;;;;;;5068501;28;20035;-74
2022/08/01 05:04:57;;;;;;;18.15;13.88;;;20.40;93.50;;;;;;5071455;28;20459;-74
2022/08/01 05:07:23;;;;;;;12.93;10.75;;;20.40;93.50;;;;;;5070684;28;20025;-74
2022/08/01 05:09:50;;;;;;;15.63;10.20;;;20.40;93.50;;;;;;5071017;28;20020;-74
2022/08/01 05:12:16;;;;;;;18.92;13.55;;;20.40;93.50;;;;;;5065296;28;20536;-74
2022/08/01 05:14:41;;;;;;;15.13;11.68;;;20.40;93.50;;;;;;5068159;28;20029;-74
2022/08/01 05:17:08;;;;;;;16.85;11.57;;;20.40;93.80;;;;;;5051091;28;20031;-75
2022/08/01 05:19:34;;;;;;;13.95;9.98;;;20.40;93.40;;;;;;5054756;28;20039;-74
2022/08/01 05:22:04;;;;;;;12.07;7.55;;;20.40;93.20;;;;;;5051177;28;20074;-74
2022/08/01 05:24:30;;;;;;;13.00;9.07;;;20.40;93.30;;;;;;5069737;28;20543;-75
2022/08/01 05:26:57;;;;;;;15.73;10.93;;;20.50;93.30;;;;;;5066108;28;20029;-73
2022/08/01 05:29:23;;;;;;;14.13;10.63;;;20.60;93.30;;;;;;5050825;28;20021;-73
2022/08/01 05:31:49;;;;;;;13.88;9.93;;;20.60;93.20;;;;;;5065290;28;20490;-74
2022/08/01 05:34:15;;;;;;;15.05;11.20;;;20.60;93.10;;;;;;5069783;28;20035;-73
2022/08/01 05:36:41;;;;;;;14.43;9.60;;;20.60;93.10;;;;;;5063436;28;20537;-73
2022/08/01 05:39:07;;;;;;;14.80;8.73;;;20.60;93.10;;;;;;5063665;28;20112;-74
2022/08/01 05:41:33;;;;;;;13.57;10.70;;;20.60;93.10;;;;;;5062685;28;20060;-73
2022/08/01 05:43:59;;;;;;;12.93;8.70;;;20.60;93.20;;;;;;5056380;28;20052;-73
2022/08/01 05:46:25;;;;;;;16.98;10.75;;;20.60;93.10;;;;;;5049401;28;20503;-73
2022/08/01 05:48:50;;;;;;;11.82;8.07;;;20.60;93.30;;;;;;5049111;28;20063;-73
2022/08/01 05:51:16;;;;;;;11.40;8.40;;;20.60;93.30;;;;;;5061889;28;20124;-73
2022/08/01 05:53:42;;;;;;;8.57;6.15;;;20.60;92.80;;;;;;5069145;28;20096;-73
2022/08/01 05:56:07;;;;;;;11.18;7.47;;;20.60;92.70;;;;;;5067860;28;20032;-75
2022/08/01 05:58:33;;;;;;;7.43;4.85;;;20.60;92.80;;;;;;5061114;28;20529;-73
2022/08/01 06:00:59;;;;;;;5.85;3.65;;;20.60;93.20;;;;;;5048879;28;20145;-73
2022/08/01 06:03:24;;;;;;;6.68;3.90;;;20.70;92.60;;;;;;5048796;28;20136;-73
2022/08/01 06:05:52;;;;;;;6.93;3.40;;;20.80;92.50;;;;;;5048789;28;20108;-74
2022/08/01 06:08:17;;;;;;;4.35;2.25;;;20.90;92.40;;;;;;5048934;28;20024;-73
2022/08/01 06:10:46;;;;;;;6.03;3.10;;;21.00;92.20;;;;;;5054746;28;20036;-73
2022/08/01 06:13:13;;;;;;;3.92;1.98;;;21.00;92.40;;;;;;5060043;28;20058;-73
2022/08/01 06:15:38;;;;;;;3.95;2.40;;;21.10;91.10;;;;;;5056230;28;20025;-74
2022/08/01 06:18:04;;;;;;;3.78;2.13;;;21.20;90.20;;;;;;5049784;28;20032;-73
2022/08/01 06:20:30;;;;;;;2.78;1.58;;;21.40;90.30;;;;;;5054895;28;20029;-73
2022/08/01 06:22:56;;;;;;;4.22;1.77;;;21.40;90.20;;;;;;5054980;28;20035;-73
2022/08/01 06:25:22;;;;;;;2.55;1.58;;;21.40;89.70;;;;;;5055516;28;20665;-73
2022/08/01 06:27:49;;;;;;;2.95;1.40;;;21.40;89.60;;;;;;5049932;28;20028;-72
2022/08/01 06:30:15;;;;;;;2.88;1.20;;;21.40;89.40;;;;;;5049187;28;20025;-72
2022/08/01 06:32:40;;;;;;;1.60;1.00;;;21.50;86.70;;;;;;5049884;28;20041;-73
2022/08/01 06:35:07;;;;;;;2.85;1.35;;;21.60;84.20;;;;;;5068109;28;20029;-73
2022/08/01 06:37:32;;;;;;;1.08;0.60;;;21.70;86.50;;;;;;5065749;28;20039;-71
2022/08/01 06:40:03;;;;;;;1.92;1.10;;;21.70;87.00;;;;;;5054132;28;20034;-72
2022/08/01 06:42:31;;;;;;;2.25;1.00;;;21.60;87.20;;;;;;5054907;28;20043;-72
2022/08/01 06:44:57;;;;;;;1.83;1.00;;;21.60;87.00;;;;;;5049881;28;20017;-74
2022/08/01 06:47:22;;;;;;;1.23;0.85;;;21.50;88.50;;;;;;5061142;28;20372;-73
2022/08/01 06:49:48;;;;;;;2.47;1.52;;;21.50;89.40;;;;;;5071107;28;20063;-73
2022/08/01 06:52:14;;;;;;;2.90;1.70;;;21.40;90.20;;;;;;5064398;28;20025;-74
2022/08/01 06:54:39;;;;;;;2.95;1.50;;;21.30;90.20;;;;;;5056889;28;20033;-74
2022/08/01 06:57:05;;;;;;;2.85;1.40;;;21.20;90.80;;;;;;5049289;28;20025;-73
2022/08/01 06:59:31;;;;;;;3.50;1.65;;;21.20;90.70;;;;;;5055142;28;20495;-73
2022/08/01 07:01:57;;;;;;;3.33;1.40;;;21.20;91.00;;;;;;5050789;28;20032;-72
2022/08/01 07:04:22;;;;;;;3.78;1.38;;;21.20;91.20;;;;;;5049688;28;20031;-72
2022/08/01 07:06:48;;;;;;;3.60;1.55;;;21.30;91.10;;;;;;5054068;28;20104;-72
2022/08/01 07:09:13;;;;;;;2.85;1.38;;;21.30;90.90;;;;;;5050229;28;20060;-73
2022/08/01 07:11:39;;;;;;;3.65;1.63;;;21.30;90.00;;;;;;5055125;28;21410;-73
2022/08/01 07:14:05;;;;;;;2.88;1.45;;;21.50;88.80;;;;;;5067739;28;20560;-73
2022/08/01 07:16:30;;;;;;;2.40;0.77;;;21.50;89.60;;;;;;5055378;28;20025;-73
2022/08/01 07:18:56;;;;;;;3.60;1.42;;;21.50;86.50;;;;;;5050238;28;20029;-72
2022/08/01 07:21:21;;;;;;;2.42;0.80;;;21.70;83.00;;;;;;5053122;28;20036;-74
2022/08/01 07:23:47;;;;;;;3.67;1.80;;;21.80;83.00;;;;;;5059166;28;20024;-73
2022/08/01 07:26:13;;;;;;;4.47;1.23;;;21.80;84.80;;;;;;5049974;28;20154;-73
2022/08/01 07:28:38;;;;;;;4.13;1.23;;;21.80;86.50;;;;;;5049627;28;20021;-73
2022/08/01 07:31:04;;;;;;;4.15;1.75;;;21.90;79.50;;;;;;5064316;28;20048;-73
2022/08/01 07:33:30;;;;;;;2.03;1.13;;;22.00;84.40;;;;;;5068362;28;20081;-73
2022/08/01 07:35:55;;;;;;;3.08;1.42;;;22.00;83.30;;;;;;5062958;28;20107;-72
2022/08/01 07:38:21;;;;;;;4.82;1.27;;;21.90;85.30;;;;;;5068729;28;20462;-74
2022/08/01 07:40:47;;;;;;;6.78;1.40;;;21.80;85.00;;;;;;5053053;28;20021;-72
2022/08/01 07:43:12;;;;;;;3.78;1.10;;;21.90;80.50;;;;;;5053559;28;20480;-71
2022/08/01 07:45:38;;;;;;;2.58;1.40;;;22.00;82.00;;;;;;5056846;28;20019;-73
2022/08/01 07:48:05;;;;;;;3.15;1.15;;;22.20;82.70;;;;;;5057128;28;20024;-74
2022/08/01 07:50:32;;;;;;;3.08;1.30;;;22.30;82.10;;;;;;5057437;28;20033;-73
2022/08/01 07:52:57;;;;;;;5.30;1.23;;;22.40;79.80;;;;;;5056765;28;20150;-73
2022/08/01 07:55:23;;;;;;;2.17;1.05;;;22.50;76.80;;;;;;5054098;28;20112;-74
2022/08/01 07:57:49;;;;;;;4.30;1.58;;;22.60;77.20;;;;;;5056947;28;20043;-74
2022/08/01 08:00:15;;;;;;;3.80;1.27;;;22.60;77.10;;;;;;5054105;28;20028;-74
2022/08/01 08:02:41;;;;;;;4.32;1.10;;;22.70;76.00;;;;;;5053163;28;20391;-72
2022/08/01 08:05:07;;;;;;;2.60;0.82;;;22.80;74.70;;;;;;5050513;28;20162;-72
2022/08/01 08:07:33;;;;;;;1.63;0.82;;;23.00;74.20;;;;;;5054948;28;20029;-73
2022/08/01 08:09:59;;;;;;;4.00;0.85;;;23.10;73.40;;;;;;5052227;28;20119;-72
2022/08/01 08:12:24;;;;;;;3.13;1.08;;;23.30;72.30;;;;;;5050789;28;20032;-71
2022/08/01 08:14:50;;;;;;;3.28;1.10;;;23.30;73.60;;;;;;5053694;28;20028;-73
2022/08/01 08:17:16;;;;;;;1.95;0.90;;;23.40;71.80;;;;;;5052862;28;20032;-73
2022/08/01 08:19:42;;;;;;;2.33;0.82;;;23.50;72.00;;;;;;5052188;28;20432;-72
2022/08/01 08:22:09;;;;;;;3.40;1.00;;;23.50;71.30;;;;;;5050747;28;20059;-73
2022/08/01 08:24:36;;;;;;;3.28;1.15;;;23.40;71.30;;;;;;5052946;28;20017;-74
2022/08/01 08:27:02;;;;;;;2.45;0.90;;;23.40;70.90;;;;;;5051453;28;20035;-74
2022/08/01 08:29:31;;;;;;;4.05;1.15;;;23.50;71.00;;;;;;5049540;28;20029;-73
2022/08/01 08:31:58;;;;;;;6.50;1.13;;;23.50;70.90;;;;;;5054322;28;20057;-73
2022/08/01 08:34:25;;;;;;;4.80;1.13;;;23.50;70.80;;;;;;5052021;28;20441;-73
2022/08/01 08:36:51;;;;;;;3.30;0.70;;;23.60;71.20;;;;;;5051611;28;20483;-73
2022/08/01 08:39:18;;;;;;;6.05;1.17;;;23.60;71.80;;;;;;5055658;28;20043;-72
2022/08/01 08:41:44;;;;;;;2.95;1.15;;;23.50;72.40;;;;;;5053873;28;20059;-73
2022/08/01 08:44:10;;;;;;;2.53;1.15;;;23.40;74.70;;;;;;5050745;28;20017;-73
2022/08/01 08:46:57;;;;;;;5.75;1.08;;;23.20;75.60;;;;;;5051365;28;20029;-73
2022/08/01 08:49:27;;;;;;;3.58;1.25;;;23.30;73.40;;;;;;5053531;28;20017;-69
2022/08/01 08:51:57;;;;;;;;;;;23.40;74.60;;;;;;5059180;28;20101;-72
2022/08/01 08:54:25;;;;;;;2.17;0.83;;;23.40;75.00;;;;;;5054594;28;19955;-71
2022/08/01 08:56:53;;;;;;;3.28;0.90;;;23.40;73.80;;;;;;5051873;28;20475;-73
2022/08/01 08:59:18;;;;;;;4.50;1.50;;;23.50;71.20;;;;;;5052725;28;20024;-71
2022/08/01 09:01:44;;;;;;;2.00;0.77;;;23.60;70.50;;;;;;5054337;28;20029;-71
2022/08/01 09:04:11;;;;;;;5.75;1.00;;;23.80;70.10;;;;;;5054305;28;20033;-72
2022/08/01 09:06:37;;;;;;;2.75;0.70;;;23.80;70.50;;;;;;5055830;28;20051;-74
2022/08/01 09:09:04;;;;;;;4.00;0.90;;;23.70;70.70;;;;;;5055577;28;20051;-72
2022/08/01 09:11:30;;;;;;;2.65;1.13;;;23.40;71.90;;;;;;5055398;28;20115;-74
2022/08/01 09:14:11;;;;;;;3.28;1.23;;;23.20;73.60;;;;;;5056410;28;20115;-72
2022/08/01 09:16:41;;;;;;;3.58;1.45;;;23.10;74.00;;;;;;5057714;28;20016;-72
2022/08/01 09:19:18;;;;;;;5.68;1.67;;;23.00;75.60;;;;;;5058235;28;20028;-74
2022/08/01 09:22:03;;;;;;;5.97;2.00;;;22.70;75.20;;;;;;5058149;28;20040;-73
2022/08/01 09:24:29;;;;;;;4.00;1.70;;;22.60;76.10;;;;;;5055230;28;20173;-74
2022/08/01 09:26:56;;;;;;;4.55;1.90;;;22.50;77.00;;;;;;5059512;28;20104;-73
2022/08/01 09:29:24;;;;;;;5.30;2.00;;;22.40;78.30;;;;;;5056349;28;20040;-74
2022/08/01 09:31:51;;;;;;;2.92;1.20;;;22.40;78.20;;;;;;5053540;28;20036;-74
2022/08/01 09:34:27;;;;;;;4.65;1.40;;;22.50;77.00;;;;;;5056773;28;20071;-74
2022/08/01 09:36:58;;;;;;;3.17;1.73;;;22.60;76.70;;;;;;5058404;28;20051;-74
2022/08/01 09:39:28;;;;;;;4.00;1.35;;;22.60;77.30;;;;;;5057092;28;20052;-74
2022/08/01 09:41:56;;;;;;;2.92;1.38;;;22.70;76.00;;;;;;5053626;28;20044;-73
2022/08/01 09:44:40;;;;;;;6.07;2.13;;;22.80;75.60;;;;;;5057220;28;20051;-73
2022/08/01 09:47:06;;;;;;;5.97;2.88;;;22.80;76.90;;;;;;5056240;28;20328;-72
2022/08/01 09:49:34;;;;;;;5.07;1.25;;;22.80;78.90;;;;;;5053384;28;20035;-69
2022/08/01 09:52:16;;;;;;;5.78;2.15;;;22.70;77.90;;;;;;5054643;28;20029;-68
2022/08/01 09:54:43;;;;;;;8.75;2.45;;;22.50;78.60;;;;;;5057524;28;20024;-70
2022/08/01 09:57:18;;;;;;;5.30;1.70;;;22.40;78.10;;;;;;5052360;28;20531;-69
2022/08/01 09:59:48;;;;;;;5.60;1.50;;;22.30;78.60;;;;;;5054398;28;20174;-68
2022/08/01 10:02:34;;;;;;;4.75;1.90;;;22.20;78.90;;;;;;5052733;28;20093;-68
2022/08/01 10:05:04;;;;;;;5.47;1.88;;;22.10;79.40;;;;;;5055887;28;20116;-68
2022/08/01 10:07:30;;;;;;;3.75;1.60;;;22.10;80.20;;;;;;5055396;28;20024;-68
2022/08/01 10:10:08;;;;;;;5.50;1.67;;;22.10;80.30;;;;;;5054098;28;20024;-68
2022/08/01 10:12:34;;;;;;;9.60;2.28;;;22.10;80.20;;;;;;5054752;28;20463;-68
2022/08/01 10:14:59;;;;;;;7.60;3.20;;;22.10;80.90;;;;;;5056240;28;20116;-68
2022/08/01 10:17:25;;;;;;;5.00;2.05;;;22.20;81.80;;;;;;5054806;28;20822;-68
2022/08/01 10:19:54;;;;;;;3.70;1.65;;;22.30;81.70;;;;;;5055905;28;20040;-69
2022/08/01 10:22:23;;;;;;;8.77;3.40;;;22.40;80.10;;;;;;5054896;28;20032;-72
2022/08/01 10:24:54;;;;;;;6.75;2.55;;;22.50;80.60;;;;;;5056069;28;20259;-74
2022/08/01 10:27:21;;;;;;;8.48;3.70;;;22.50;81.90;;;;;;5058751;28;20074;-72
2022/08/01 10:30:07;;;;;;;16.00;5.00;;;22.50;82.30;;;;;;5054794;28;20028;-74
2022/08/01 10:32:35;;;;;;;12.07;3.97;;;22.60;83.20;;;;;;5054733;28;20044;-72
2022/08/01 10:35:03;;;;;;;9.15;3.72;;;22.70;84.50;;;;;;5056280;28;20023;-73
2022/08/01 10:37:29;;;;;;;7.63;2.78;;;22.80;84.40;;;;;;5054842;28;20032;-73
2022/08/01 10:39:56;;;;;;;5.63;2.25;;;22.80;82.70;;;;;;5055765;28;20758;-71
2022/08/01 10:42:22;;;;;;;9.55;2.40;;;22.90;82.40;;;;;;5052475;28;20373;-70
2022/08/01 10:44:48;;;;;;;9.02;2.30;;;22.90;82.60;;;;;;5051506;28;20437;-73
2022/08/01 10:47:17;;;;;;;9.25;3.30;;;22.90;82.20;;;;;;5050483;28;20029;-70
2022/08/01 10:50:19;;;;;;;10.50;3.25;;;22.90;81.40;;;;;;5055370;28;20020;-73
2022/08/01 10:53:05;;;;;;;9.48;3.20;;;22.80;82.50;;;;;;5047423;28;20120;-71
2022/08/01 10:55:47;;;;;;;5.22;2.22;;;22.80;82.00;;;;;;5052359;28;20023;-71
2022/08/01 10:58:13;;;;;;;8.85;2.53;;;22.90;80.40;;;;;;5051650;28;20091;-70
2022/08/01 11:00:38;;;;;;;7.15;2.15;;;23.00;78.30;;;;;;5051205;28;20033;-70
2022/08/01 11:03:06;;;;;;;6.35;2.50;;;23.00;78.50;;;;;;5051849;28;20032;-72
2022/08/01 11:05:36;;;;;;;9.23;2.70;;;23.00;78.60;;;;;;5051933;28;20025;-70
2022/08/01 11:08:20;;;;;;;7.20;2.20;;;23.00;78.80;;;;;;5050721;28;20056;-71
2022/08/01 11:10:47;;;;;;;6.85;2.78;;;23.00;79.00;;;;;;5050224;28;20035;-70
2022/08/01 11:13:13;;;;;;;6.70;2.15;;;23.00;78.00;;;;;;5053259;28;20115;-71
2022/08/01 11:15:39;;;;;;;8.18;2.45;;;23.00;77.20;;;;;;5053484;28;20141;-72
2022/08/01 11:18:26;;;;;;;6.95;2.00;;;23.00;75.10;;;;;;5054872;28;20029;-71
2022/08/01 11:21:00;;;;;;;5.78;2.40;;;23.00;78.70;;;;;;5049806;28;20387;-72
2022/08/01 11:23:27;;;;;;;3.53;1.85;;;23.00;79.10;;;;;;5054154;28;20060;-71
2022/08/01 11:25:53;;;;;;;6.30;2.30;;;23.10;78.70;;;;;;5052524;28;20399;-73
2022/08/01 11:28:24;;;;;;;6.72;2.00;;;23.10;80.00;;;;;;5050497;28;20029;-68
2022/08/01 11:30:56;;;;;;;4.32;1.58;;;23.10;79.50;;;;;;5052595;28;20547;-71
2022/08/01 11:33:44;;;;;;;6.78;1.88;;;23.10;78.80;;;;;;5054243;28;20044;-68
2022/08/01 11:36:09;;;;;;;4.43;1.55;;;23.20;78.30;;;;;;5055266;28;20039;-68
2022/08/01 11:38:36;;;;;;;6.82;1.75;;;23.30;77.70;;;;;;5049560;28;20028;-68
2022/08/01 11:41:32;;;;;;;6.57;1.85;;;23.50;77.60;;;;;;5053822;28;20021;-68
2022/08/01 11:44:28;;;;;;;4.53;1.20;;;23.70;77.00;;;;;;5051544;28;20636;-68
2022/08/01 11:46:59;;;;;;;4.95;1.40;;;23.90;76.20;;;;;;5052754;28;20041;-69
2022/08/01 11:49:36;;;;;;;3.83;1.10;;;24.00;75.70;;;;;;5054626;28;20143;-68
2022/08/01 11:52:16;;;;;;;6.43;1.60;;;24.00;75.30;;;;;;5053750;28;20107;-68
2022/08/01 11:54:47;;;;;;;4.20;1.42;;;24.10;75.70;;;;;;5052633;28;20037;-68
2022/08/01 11:57:20;;;;;;;5.18;1.55;;;24.20;75.40;;;;;;5052292;28;20052;-67
2022/08/01 11:59:50;;;;;;;2.95;1.00;;;24.30;74.80;;;;;;5052085;28;20024;-69
2022/08/01 12:02:25;;;;;;;3.95;1.48;;;24.30;74.60;;;;;;5054137;28;20447;-67
2022/08/01 12:04:58;;;;;;;6.15;1.80;;;24.40;73.30;;;;;;5056439;28;20029;-69
2022/08/01 12:07:25;;;;;;;5.80;1.45;;;24.40;73.70;;;;;;5052529;28;20040;-68
2022/08/01 12:10:05;;;;;;;4.32;1.48;;;24.30;73.60;;;;;;5054763;28;20035;-69
2022/08/01 12:12:32;;;;;;;4.85;1.23;;;24.30;73.60;;;;;;5051395;28;20032;-69
2022/08/01 12:15:04;;;;;;;7.03;1.90;;;24.30;73.00;;;;;;5051782;28;20017;-69
2022/08/01 12:17:38;;;;;;;5.72;1.63;;;24.20;73.30;;;;;;5052792;28;20028;-69
2022/08/01 12:20:06;;;;;;;3.65;1.20;;;24.20;73.40;;;;;;5050747;28;20033;-69
2022/08/01 12:22:32;;;;;;;5.47;2.13;;;24.20;73.70;;;;;;5052239;28;20036;-71
2022/08/01 12:25:10;;;;;;;5.40;1.73;;;24.30;72.70;;;;;;5054739;28;20031;-72
2022/08/01 12:27:37;;;;;;;4.65;1.92;;;24.40;72.90;;;;;;5053663;28;20636;-71
2022/08/01 12:30:09;;;;;;;7.45;1.77;;;24.50;71.50;;;;;;5057732;28;20037;-72
2022/08/01 12:32:37;;;;;;;6.45;1.80;;;24.50;69.60;;;;;;5057316;28;20566;-71
2022/08/01 12:35:03;;;;;;;5.53;1.65;;;24.70;67.80;;;;;;5054625;28;20063;-71
2022/08/01 12:37:31;;;;;;;6.38;1.58;;;24.60;67.50;;;;;;5054669;28;20048;-73
2022/08/01 12:39:57;;;;;;;7.43;1.75;;;24.60;67.60;;;;;;5058763;28;20092;-72
2022/08/01 12:42:24;;;;;;;6.28;1.40;;;24.50;68.20;;;;;;5051974;28;20064;-71
2022/08/01 12:44:51;;;;;;;4.63;1.40;;;24.50;67.90;;;;;;5058212;28;20040;-72
2022/08/01 12:47:19;;;;;;;3.33;1.33;;;24.40;67.90;;;;;;5057807;28;20490;-72
2022/08/01 12:49:45;;;;;;;6.93;1.45;;;24.40;67.50;;;;;;5058415;28;20020;-72